Gans, PA (15439)

5:44 AM EST on February 11, 2016 (GMT -0500)
Fairchance/Cheat Lake | | Change Station
CLOSE
Current Station
Personal Weather Station
Location: Morgantown, WV
Elevation: 1080 ft
Nearby Weather Stations

Elev 1080 ft 39.72 °N, 79.81 °W | Updated 2 seconds ago

Overcast
Overcast
11.5 °F
Feels Like 11 °F
N
0.0
Wind Variable Wind from SSW
Gusts 0.0 mph

Today
High -- | Low -- °F
--% Chance of Precip.
Yesterday
High -- | Low -- °F
Precip. -- in
Pressure 30.09 in
Visibility 6.0 miles
Clouds Mostly Cloudy 2800 ft
Overcast 6000 ft
Windchill 11 °F
Dew Point 7 °F
Humidity 81%
Rainfall 0.00 in
Snow Depth Not available.
7:17 AM 5:50 PM
Waxing Crescent, 11% visible
METAR KMGW 110953Z AUTO 23008KT 6SM HZ BKN028 OVC060 M11/M16 A3003 RMK AO2 SLP189 T11111161 TSNO
Pressure 30.09 in
Visibility 6.0 miles
Clouds Mostly Cloudy 2800 ft
Overcast 6000 ft
Windchill 11 °F
Dew Point 7 °F
Humidity 81%
Rainfall 0.00 in
Snow Depth Not available.
7:17 AM 5:50 PM
Waxing Crescent, 11% visible
METAR KMGW 110953Z AUTO 23008KT 6SM HZ BKN028 OVC060 M11/M16 A3003 RMK AO2 SLP189 T11111161 TSNO

10-Day Weather Forecast

Almanac

Astronomy

Feb. 11, 2016 Rise Set
Actual Time
Civil Twilight
Nautical Twilight
Astronomical Twilight
Moon
Length of Visible Light
Length of Day
Tomorrow will be .
, % of the Moon is Illuminated

Today's Extremes

State Highs State Lows

Community

WunderPhotos

Upload Photos

1,892,030 photos uploaded!

WunderBlog® & News

Nearby

Air Quality

  Air Quality AQ Index Pollutant
Not available.

Snow Depth

Station Depth Elevation

Earthquake Activity

City Distance Mag. Time & Date
Minimum magnitude displayed is 2.5.

Coastal Water Temperatures

Place Temperature

Stations

Nearby Weather Stations

Station Location Temp. Windchill Dew Point Humidity Wind Precip. Elev Updated Type
                   

Watches & Warnings

There are currently no watches in effect.